createdAt,value
2018-02-03T00:00:03.943Z,42.09
2018-02-03T00:01:03.918Z,41.89
2018-02-03T00:02:03.895Z,41.99
2018-02-03T00:03:03.872Z,42.09
2018-02-03T00:04:03.848Z,41.99
2018-02-03T00:05:03.824Z,41.80
2018-02-03T00:06:03.800Z,42.09
2018-02-03T00:07:03.778Z,42.09
2018-02-03T00:08:03.754Z,41.99
2018-02-03T00:09:03.731Z,42.09
2018-02-03T00:10:03.708Z,41.61
2018-02-03T00:11:03.684Z,41.80
2018-02-03T00:12:03.661Z,41.99
2018-02-03T00:13:03.636Z,41.80
2018-02-03T00:14:03.614Z,41.99
2018-02-03T00:15:03.589Z,41.89
2018-02-03T00:16:03.567Z,42.09
2018-02-03T00:17:03.542Z,42.09
2018-02-03T00:18:03.519Z,42.19
2018-02-03T00:19:03.497Z,42.09
2018-02-03T00:20:03.476Z,41.99
2018-02-03T00:21:03.448Z,42.09
2018-02-03T00:22:03.427Z,41.99
2018-02-03T00:23:03.406Z,41.99
2018-02-03T00:24:03.384Z,41.99
2018-02-03T00:25:03.355Z,41.89
2018-02-03T00:26:03.332Z,41.71
2018-02-03T00:27:03.308Z,42.09
2018-02-03T00:28:03.286Z,41.71
2018-02-03T00:29:03.261Z,41.99
2018-02-03T00:30:03.237Z,42.09
2018-02-03T00:31:03.213Z,41.71
2018-02-03T00:32:03.192Z,41.99
2018-02-03T00:33:03.166Z,41.71
2018-02-03T00:34:03.147Z,41.71
2018-02-03T00:35:03.119Z,41.89
2018-02-03T00:36:03.097Z,41.80
2018-02-03T00:37:03.071Z,41.80
2018-02-03T00:38:03.050Z,41.71
2018-02-03T00:39:03.026Z,41.61
2018-02-03T00:40:03.003Z,41.71
2018-02-03T00:41:02.978Z,41.80
2018-02-03T00:42:02.957Z,41.80
2018-02-03T00:43:02.932Z,41.71
2018-02-03T00:44:02.908Z,41.80
2018-02-03T00:45:02.885Z,41.71
2018-02-03T00:46:02.861Z,41.71
2018-02-03T00:47:02.837Z,41.80
2018-02-03T00:48:02.817Z,41.80
2018-02-03T00:49:02.789Z,41.71
2018-02-03T00:50:02.767Z,41.89
2018-02-03T00:51:02.743Z,41.71
2018-02-03T00:52:02.720Z,41.71
2018-02-03T00:53:02.695Z,41.71
2018-02-03T00:54:02.673Z,41.71
2018-02-03T00:55:02.650Z,41.80
2018-02-03T00:56:02.628Z,41.80
2018-02-03T00:57:02.602Z,41.71
2018-02-03T00:58:02.577Z,41.80
2018-02-03T00:59:02.555Z,41.71
2018-02-03T01:00:02.532Z,41.80
2018-02-03T01:01:02.517Z,41.71
2018-02-03T01:02:02.484Z,41.71
2018-02-03T01:03:02.462Z,41.71
2018-02-03T01:04:02.437Z,41.71
2018-02-03T01:05:02.413Z,41.80
2018-02-03T01:06:02.391Z,41.89
2018-02-03T01:07:02.367Z,41.89
2018-02-03T01:08:02.343Z,41.80
2018-02-03T01:09:02.319Z,41.80
2018-02-03T01:10:02.296Z,41.71
2018-02-03T01:11:02.274Z,41.71
2018-02-03T01:12:02.249Z,41.71
2018-02-03T01:13:02.226Z,41.89
2018-02-03T01:14:02.203Z,41.71
2018-02-03T01:15:02.179Z,41.71
2018-02-03T01:16:02.154Z,41.80
2018-02-03T01:17:02.131Z,41.71
2018-02-03T01:18:02.106Z,41.71
2018-02-03T01:19:02.084Z,41.89
2018-02-03T01:20:02.059Z,41.61
2018-02-03T01:21:02.036Z,41.41
2018-02-03T01:22:02.012Z,41.99
2018-02-03T01:23:01.989Z,41.80
2018-02-03T01:24:01.967Z,41.89
2018-02-03T01:25:01.944Z,41.80
2018-02-03T01:26:01.918Z,41.89
2018-02-03T01:27:01.895Z,41.80
2018-02-03T01:28:01.870Z,41.99
2018-02-03T01:29:01.846Z,41.71
2018-02-03T01:30:01.825Z,41.61
2018-02-03T01:31:01.801Z,41.80
2018-02-03T01:32:01.778Z,41.71
2018-02-03T01:33:01.755Z,41.80
2018-02-03T01:34:01.730Z,41.80
2018-02-03T01:35:01.707Z,41.61
2018-02-03T01:36:01.683Z,41.71
2018-02-03T01:37:01.659Z,41.61
2018-02-03T01:38:01.636Z,41.71
2018-02-03T01:39:01.612Z,41.61
2018-02-03T01:40:01.589Z,41.61
2018-02-03T01:41:01.568Z,41.71
2018-02-03T01:42:01.540Z,41.71
2018-02-03T01:43:01.518Z,41.71
2018-02-03T01:44:01.495Z,41.71
2018-02-03T01:45:01.469Z,41.41
2018-02-03T01:46:01.449Z,41.51
2018-02-03T01:47:01.423Z,41.61
2018-02-03T01:48:01.400Z,41.61
2018-02-03T01:49:01.375Z,41.41
2018-02-03T01:50:01.353Z,41.61
2018-02-03T01:51:01.327Z,41.61
2018-02-03T01:52:01.304Z,41.61
2018-02-03T01:53:01.285Z,41.61
2018-02-03T01:54:01.258Z,41.51
2018-02-03T01:55:01.234Z,41.32
2018-02-03T01:56:01.211Z,41.61
2018-02-03T01:57:01.192Z,41.32
2018-02-03T01:58:01.162Z,41.71
2018-02-03T01:59:01.140Z,41.71
2018-02-03T02:00:01.115Z,41.61
2018-02-03T02:01:01.091Z,41.51
2018-02-03T02:02:01.068Z,41.51
2018-02-03T02:03:01.044Z,41.41
2018-02-03T02:04:01.022Z,41.41
2018-02-03T02:05:00.997Z,41.51
2018-02-03T02:06:00.974Z,41.51
2018-02-03T02:07:00.951Z,41.51
2018-02-03T02:08:00.926Z,41.61
2018-02-03T02:09:00.903Z,41.41
2018-02-03T02:10:00.878Z,41.41
2018-02-03T02:11:00.856Z,41.32
2018-02-03T02:12:00.833Z,41.41
2018-02-03T02:13:00.808Z,41.41
2018-02-03T02:14:00.785Z,41.41
2018-02-03T02:15:00.760Z,41.41
2018-02-03T02:16:00.738Z,41.22
2018-02-03T02:17:00.713Z,41.41
2018-02-03T02:18:00.690Z,41.41
2018-02-03T02:19:00.666Z,41.41
2018-02-03T02:20:00.643Z,41.71
2018-02-03T02:21:00.619Z,42.47
2018-02-03T02:22:00.597Z,42.28
2018-02-03T02:23:00.571Z,42.28
2018-02-03T02:24:00.549Z,42.46
2018-02-03T02:25:00.525Z,42.28
2018-02-03T02:26:00.501Z,42.16
2018-02-03T02:27:00.477Z,42.55
2018-02-03T02:28:00.454Z,42.26
2018-02-03T02:29:00.429Z,42.46
2018-02-03T02:30:00.407Z,42.46
2018-02-03T02:31:00.385Z,42.55
2018-02-03T02:32:00.359Z,42.55
2018-02-03T02:33:00.335Z,42.26
2018-02-03T02:34:00.314Z,42.38
2018-02-03T02:35:00.289Z,42.46
2018-02-03T02:36:00.267Z,42.46
2018-02-03T02:37:00.241Z,42.28
2018-02-03T02:38:00.220Z,42.09
2018-02-03T02:39:00.194Z,42.07
2018-02-03T02:40:00.171Z,42.16
2018-02-03T02:41:00.145Z,41.99
2018-02-03T02:42:00.122Z,42.07
2018-02-03T02:43:00.098Z,42.09
2018-02-03T02:44:00.075Z,42.09
2018-02-03T02:45:00.054Z,41.99
2018-02-03T02:46:00.029Z,42.19
2018-02-03T02:47:00.005Z,42.28
2018-02-03T02:47:59.981Z,42.46
2018-02-03T02:48:59.955Z,42.46
2018-02-03T02:49:59.932Z,42.38
2018-02-03T02:50:59.909Z,42.38
2018-02-03T02:51:59.885Z,42.36
2018-02-03T02:52:59.861Z,42.46
2018-02-03T02:53:59.842Z,42.38
2018-02-03T02:54:59.814Z,42.38
2018-02-03T02:55:59.792Z,42.46
2018-02-03T02:56:59.766Z,42.38
2018-02-03T02:57:59.742Z,42.47
2018-02-03T02:58:59.719Z,42.36
2018-02-03T02:59:59.705Z,42.46
2018-02-03T03:00:59.671Z,42.38
2018-02-03T03:01:59.648Z,42.46
2018-02-03T03:02:59.624Z,42.19
2018-02-03T03:03:59.601Z,42.16
2018-02-03T03:04:59.578Z,42.16
2018-02-03T03:05:59.554Z,42.09
2018-02-03T03:06:59.528Z,41.97
2018-02-03T03:07:59.506Z,42.47
2018-02-03T03:08:59.482Z,42.26
2018-02-03T03:09:59.458Z,42.07
2018-02-03T03:10:59.434Z,42.26
2018-02-03T03:11:59.412Z,42.36
2018-02-03T03:12:59.387Z,42.36
2018-02-03T03:13:59.363Z,42.26
2018-02-03T03:14:59.340Z,42.36
2018-02-03T03:15:59.315Z,42.46
2018-02-03T03:16:59.292Z,42.26
2018-02-03T03:17:59.268Z,42.36
2018-02-03T03:18:59.244Z,42.16
2018-02-03T03:19:59.220Z,42.26
2018-02-03T03:20:59.196Z,42.19
2018-02-03T03:21:59.172Z,42.16
2018-02-03T03:22:59.150Z,42.16
2018-02-03T03:23:59.130Z,42.07
2018-02-03T03:24:59.102Z,42.26
2018-02-03T03:25:59.077Z,42.07
2018-02-03T03:26:59.055Z,42.07
2018-02-03T03:27:59.030Z,42.36
2018-02-03T03:28:59.006Z,42.16
2018-02-03T03:29:58.983Z,42.07
2018-02-03T03:30:58.960Z,42.07
2018-02-03T03:31:58.936Z,42.07
2018-02-03T03:32:58.912Z,42.16
2018-02-03T03:33:58.890Z,42.07
2018-02-03T03:34:58.865Z,42.07
2018-02-03T03:35:58.841Z,41.97
2018-02-03T03:36:58.817Z,42.16
2018-02-03T03:37:58.793Z,41.97
2018-02-03T03:38:58.820Z,41.97
2018-02-03T03:39:58.746Z,42.07
2018-02-03T03:40:58.727Z,41.88
2018-02-03T03:41:58.699Z,41.97
2018-02-03T03:42:58.675Z,41.88
2018-02-03T03:43:58.654Z,41.97
2018-02-03T03:44:58.627Z,42.09
2018-02-03T03:45:58.603Z,42.07
2018-02-03T03:46:58.579Z,41.78
2018-02-03T03:47:58.555Z,41.68
2018-02-03T03:48:58.532Z,41.68
2018-02-03T03:49:58.507Z,41.97
2018-02-03T03:50:58.485Z,41.97
2018-02-03T03:51:58.461Z,41.88
2018-02-03T03:52:58.435Z,42.07
2018-02-03T03:53:58.413Z,42.07
2018-02-03T03:54:58.389Z,42.07
2018-02-03T03:55:59.568Z,42.07
2018-02-03T03:56:58.341Z,41.97
2018-02-03T03:57:58.318Z,42.16
2018-02-03T03:58:58.294Z,42.07
2018-02-03T03:59:58.271Z,42.07
2018-02-03T04:00:58.245Z,41.97
2018-02-03T04:01:58.223Z,42.07
2018-02-03T04:02:58.200Z,41.89
2018-02-03T04:03:58.176Z,42.07
2018-02-03T04:04:58.151Z,42.09
2018-02-03T04:05:58.128Z,41.71
2018-02-03T04:06:58.105Z,41.80
2018-02-03T04:07:58.081Z,41.89
2018-02-03T04:08:58.057Z,41.71
2018-02-03T04:09:58.034Z,41.71
2018-02-03T04:10:58.010Z,41.71
2018-02-03T04:11:57.986Z,41.71
2018-02-03T04:12:57.962Z,41.80
2018-02-03T04:13:57.939Z,41.80
2018-02-03T04:14:57.915Z,41.80
2018-02-03T04:15:57.892Z,41.89
2018-02-03T04:16:57.868Z,41.80
2018-02-03T04:17:57.845Z,41.71
2018-02-03T04:18:57.820Z,41.51
2018-02-03T04:19:57.798Z,41.51
2018-02-03T04:20:57.773Z,41.71
2018-02-03T04:21:57.750Z,41.71
2018-02-03T04:22:57.727Z,41.71
2018-02-03T04:23:57.702Z,41.80
2018-02-03T04:24:57.678Z,41.41
2018-02-03T04:25:57.655Z,41.71
2018-02-03T04:26:57.633Z,41.80
2018-02-03T04:27:57.609Z,41.80
2018-02-03T04:28:57.590Z,41.71
2018-02-03T04:29:57.561Z,41.89
2018-02-03T04:30:57.538Z,41.32
2018-02-03T04:31:57.514Z,41.80
2018-02-03T04:32:57.490Z,41.51
2018-02-03T04:33:57.467Z,41.80
2018-02-03T04:34:57.443Z,41.41
2018-02-03T04:35:57.420Z,41.61
2018-02-03T04:36:57.397Z,41.61
2018-02-03T04:37:57.371Z,41.80
2018-02-03T04:38:57.348Z,41.61
2018-02-03T04:39:57.325Z,41.89
2018-02-03T04:40:57.302Z,41.61
2018-02-03T04:41:57.278Z,41.80
2018-02-03T04:42:57.255Z,41.80
2018-02-03T04:43:57.233Z,41.51
2018-02-03T04:44:57.208Z,41.61
2018-02-03T04:45:57.184Z,41.51
2018-02-03T04:46:57.165Z,41.71
2018-02-03T04:47:57.138Z,41.71
2018-02-03T04:48:57.112Z,41.71
2018-02-03T04:49:57.089Z,41.61
2018-02-03T04:50:57.067Z,41.71
2018-02-03T04:51:57.044Z,41.61
2018-02-03T04:52:57.019Z,41.51
2018-02-03T04:53:56.995Z,41.71
2018-02-03T04:54:56.971Z,41.71
2018-02-03T04:55:56.950Z,41.71
2018-02-03T04:56:56.925Z,41.89
2018-02-03T04:57:56.902Z,41.71
2018-02-03T04:58:56.879Z,41.51
2018-02-03T04:59:56.855Z,41.51
2018-02-03T05:00:56.831Z,41.71
2018-02-03T05:01:56.808Z,41.61
2018-02-03T05:02:56.784Z,41.80
2018-02-03T05:03:56.761Z,41.61
2018-02-03T05:04:56.736Z,41.61
2018-02-03T05:05:56.713Z,41.61
2018-02-03T05:06:56.691Z,41.71
2018-02-03T05:07:56.667Z,41.61
2018-02-03T05:08:56.643Z,41.61
2018-02-03T05:09:56.620Z,41.71
2018-02-03T05:10:56.597Z,41.51
2018-02-03T05:11:56.573Z,41.61
2018-02-03T05:12:56.549Z,41.61
2018-02-03T05:13:56.526Z,41.61
2018-02-03T05:14:56.502Z,41.41
2018-02-03T05:15:56.479Z,41.41
2018-02-03T05:16:56.484Z,41.61
2018-02-03T05:17:56.431Z,41.61
2018-02-03T05:18:56.408Z,41.61
2018-02-03T05:19:56.385Z,41.41
2018-02-03T05:20:56.362Z,41.41
2018-02-03T05:21:56.336Z,41.41
2018-02-03T05:22:56.313Z,41.32
2018-02-03T05:23:56.291Z,41.80
2018-02-03T05:24:56.266Z,41.41
2018-02-03T05:25:56.243Z,41.41
2018-02-03T05:26:56.219Z,41.22
2018-02-03T05:27:56.256Z,41.03
2018-02-03T05:28:56.172Z,41.13
2018-02-03T05:29:56.148Z,41.22
2018-02-03T05:30:56.125Z,41.41
2018-02-03T05:31:56.103Z,41.13
2018-02-03T05:32:56.078Z,41.32
2018-02-03T05:33:56.055Z,40.94
2018-02-03T05:34:56.032Z,40.94
2018-02-03T05:35:56.008Z,41.13
2018-02-03T05:36:55.983Z,41.03
2018-02-03T05:37:55.967Z,40.94
2018-02-03T05:38:55.937Z,41.03
2018-02-03T05:39:55.913Z,41.22
2018-02-03T05:40:55.890Z,41.13
2018-02-03T05:41:55.865Z,41.22
2018-02-03T05:42:55.843Z,41.22
2018-02-03T05:43:55.819Z,41.13
2018-02-03T05:44:55.794Z,41.13
2018-02-03T05:45:55.771Z,41.13
2018-02-03T05:46:55.748Z,41.13
2018-02-03T05:47:55.725Z,41.03
2018-02-03T05:48:55.700Z,41.13
2018-02-03T05:49:55.678Z,41.41
2018-02-03T05:50:55.653Z,41.22
2018-02-03T05:51:55.631Z,41.32
2018-02-03T05:52:55.606Z,41.61
2018-02-03T05:53:55.584Z,41.22
2018-02-03T05:54:55.559Z,41.51
2018-02-03T05:55:55.538Z,41.13
2018-02-03T05:56:55.512Z,41.13
2018-02-03T05:57:55.492Z,41.22
2018-02-03T05:58:55.465Z,41.22
2018-02-03T05:59:55.443Z,41.22
2018-02-03T06:00:55.417Z,41.51
2018-02-03T06:01:55.395Z,41.22
2018-02-03T06:02:55.371Z,41.22
2018-02-03T06:03:55.348Z,41.13
2018-02-03T06:04:55.324Z,41.51
2018-02-03T06:05:55.301Z,41.22
2018-02-03T06:06:55.277Z,41.22
2018-02-03T06:07:55.254Z,41.22
2018-02-03T06:08:55.229Z,41.03
2018-02-03T06:09:55.206Z,41.03
2018-02-03T06:10:55.183Z,40.74
2018-02-03T06:11:55.160Z,41.03
2018-02-03T06:12:55.135Z,41.13
2018-02-03T06:13:55.113Z,41.03
2018-02-03T06:14:55.089Z,41.22
2018-02-03T06:15:55.065Z,40.94
2018-02-03T06:16:55.042Z,41.41
2018-02-03T06:17:55.018Z,41.32
2018-02-03T06:18:54.995Z,41.03
2018-02-03T06:19:54.972Z,41.03
2018-02-03T06:20:54.949Z,41.41
2018-02-03T06:21:54.924Z,41.22
2018-02-03T06:22:54.902Z,40.94
2018-02-03T06:23:54.878Z,41.03
2018-02-03T06:24:54.852Z,41.41
2018-02-03T06:25:54.830Z,41.51
2018-02-03T06:26:54.806Z,41.22
2018-02-03T06:27:54.785Z,41.32
2018-02-03T06:28:54.758Z,41.03
2018-02-03T06:29:54.736Z,41.32
2018-02-03T06:30:54.714Z,41.32
2018-02-03T06:31:54.689Z,41.13
2018-02-03T06:32:54.665Z,41.03
2018-02-03T06:33:54.640Z,41.13
2018-02-03T06:34:54.617Z,41.03
2018-02-03T06:35:54.600Z,41.22
2018-02-03T06:36:54.570Z,41.41
2018-02-03T06:37:54.548Z,40.94
2018-02-03T06:38:54.524Z,41.13
2018-02-03T06:39:54.501Z,41.13
2018-02-03T06:40:54.476Z,41.13
2018-02-03T06:41:54.454Z,41.22
2018-02-03T06:42:54.430Z,41.03
2018-02-03T06:43:54.407Z,41.22
2018-02-03T06:44:54.382Z,41.22
2018-02-03T06:45:54.358Z,41.13
2018-02-03T06:46:54.336Z,41.22
2018-02-03T06:47:54.312Z,40.84
2018-02-03T06:48:54.288Z,41.03
2018-02-03T06:49:54.264Z,40.84
2018-02-03T06:50:54.281Z,41.03
2018-02-03T06:51:54.217Z,40.94
2018-02-03T06:52:54.193Z,40.74
2018-02-03T06:53:54.174Z,41.13
2018-02-03T06:54:54.148Z,41.03
2018-02-03T06:55:54.124Z,41.13
2018-02-03T06:56:54.100Z,41.03
2018-02-03T06:57:54.082Z,40.74
2018-02-03T06:58:54.056Z,41.22
2018-02-03T06:59:54.046Z,40.94
2018-02-03T07:00:54.006Z,41.03
2018-02-03T07:01:53.983Z,40.94
2018-02-03T07:02:53.962Z,41.13
2018-02-03T07:03:53.936Z,40.74
2018-02-03T07:04:53.911Z,41.13
2018-02-03T07:05:53.890Z,41.03
2018-02-03T07:06:53.864Z,40.84
2018-02-03T07:07:53.844Z,40.84
2018-02-03T07:08:53.816Z,41.03
2018-02-03T07:09:53.794Z,41.03
2018-02-03T07:10:53.771Z,40.94
2018-02-03T07:11:53.747Z,40.74
2018-02-03T07:12:53.724Z,41.13
2018-02-03T07:13:53.701Z,40.84
2018-02-03T07:14:53.676Z,41.13
2018-02-03T07:15:53.653Z,40.84
2018-02-03T07:16:53.630Z,40.94
2018-02-03T07:17:53.606Z,40.84
2018-02-03T07:18:53.584Z,41.03
2018-02-03T07:19:53.560Z,40.94
2018-02-03T07:20:53.536Z,41.13
2018-02-03T07:21:53.513Z,41.03
2018-02-03T07:22:53.490Z,41.22
2018-02-03T07:23:53.467Z,40.94
2018-02-03T07:24:53.442Z,40.84
2018-02-03T07:25:53.418Z,41.13
2018-02-03T07:26:53.394Z,41.13
2018-02-03T07:27:53.372Z,41.22
2018-02-03T07:28:53.348Z,41.22
2018-02-03T07:29:53.324Z,40.94
2018-02-03T07:30:53.302Z,40.84
2018-02-03T07:31:53.278Z,41.13
2018-02-03T07:32:53.254Z,41.03
2018-02-03T07:33:53.229Z,41.03
2018-02-03T07:34:53.208Z,41.13
2018-02-03T07:35:53.184Z,41.13
2018-02-03T07:36:53.160Z,41.03
2018-02-03T07:37:53.137Z,41.03
2018-02-03T07:38:53.112Z,41.13
2018-02-03T07:39:53.090Z,41.13
2018-02-03T07:40:53.066Z,40.94
2018-02-03T07:41:53.043Z,41.03
2018-02-03T07:42:53.020Z,41.13
2018-02-03T07:43:52.999Z,41.13
2018-02-03T07:44:52.980Z,41.03
2018-02-03T07:45:52.948Z,40.94
2018-02-03T07:46:52.925Z,41.13
2018-02-03T07:47:52.950Z,41.13
2018-02-03T07:48:52.879Z,41.03
2018-02-03T07:49:52.854Z,40.95
2018-02-03T07:50:52.831Z,41.03
2018-02-03T07:51:52.808Z,40.74
2018-02-03T07:52:52.784Z,41.13
2018-02-03T07:53:52.760Z,40.94
2018-02-03T07:54:52.737Z,41.13
2018-02-03T07:55:52.715Z,41.41
2018-02-03T07:56:52.689Z,41.61
2018-02-03T07:57:52.665Z,41.61
2018-02-03T07:58:52.644Z,41.61
2018-02-03T07:59:52.620Z,41.71
2018-02-03T08:00:52.596Z,41.61
2018-02-03T08:01:52.572Z,41.71
2018-02-03T08:02:52.548Z,41.71
2018-02-03T08:03:52.525Z,41.41
2018-02-03T08:04:52.501Z,41.41
2018-02-03T08:05:52.481Z,41.51
2018-02-03T08:06:52.455Z,41.61
2018-02-03T08:07:52.433Z,41.51
2018-02-03T08:08:52.408Z,41.51
2018-02-03T08:09:52.384Z,41.41
2018-02-03T08:10:52.361Z,41.41
2018-02-03T08:11:52.338Z,41.22
2018-02-03T08:12:52.314Z,41.32
2018-02-03T08:13:52.289Z,41.41
2018-02-03T08:14:52.267Z,41.51
2018-02-03T08:15:52.244Z,41.41
2018-02-03T08:16:52.218Z,41.22
2018-02-03T08:17:52.197Z,41.22
2018-02-03T08:18:52.184Z,41.22
2018-02-03T08:19:52.150Z,41.13
2018-02-03T08:20:52.126Z,41.13
2018-02-03T08:21:52.101Z,41.03
2018-02-03T08:22:52.078Z,41.03
2018-02-03T08:23:52.056Z,40.94
2018-02-03T08:24:52.032Z,41.03
2018-02-03T08:25:52.009Z,41.13
2018-02-03T08:26:51.985Z,41.03
2018-02-03T08:27:51.962Z,41.03
2018-02-03T08:28:51.938Z,41.22
2018-02-03T08:29:51.915Z,41.03
2018-02-03T08:30:51.892Z,40.94
2018-02-03T08:31:51.868Z,40.74
2018-02-03T08:32:51.844Z,41.13
2018-02-03T08:33:51.835Z,41.03
2018-02-03T08:34:51.797Z,41.03
2018-02-03T08:35:51.775Z,41.13
2018-02-03T08:36:51.749Z,41.03
2018-02-03T08:37:51.800Z,41.14
2018-02-03T08:38:51.704Z,41.13
2018-02-03T08:39:51.679Z,41.03
2018-02-03T08:40:51.656Z,40.94
2018-02-03T08:41:51.632Z,41.13
2018-02-03T08:42:51.610Z,41.22
2018-02-03T08:43:51.587Z,41.22
2018-02-03T08:44:51.562Z,41.13
2018-02-03T08:45:51.538Z,41.13
2018-02-03T08:46:51.515Z,41.05
2018-02-03T08:47:51.493Z,41.05
2018-02-03T08:48:51.468Z,41.05
2018-02-03T08:49:51.445Z,41.14
2018-02-03T08:50:51.422Z,40.76
2018-02-03T08:51:51.400Z,40.94
2018-02-03T08:52:51.375Z,40.57
2018-02-03T08:53:51.351Z,40.76
2018-02-03T08:54:51.328Z,40.76
2018-02-03T08:55:51.305Z,40.86
2018-02-03T08:56:51.281Z,40.57
2018-02-03T08:57:51.257Z,40.66
2018-02-03T08:58:51.234Z,40.66
2018-02-03T08:59:51.211Z,40.66
2018-02-03T09:00:51.188Z,40.47
2018-02-03T09:01:51.164Z,40.19
2018-02-03T09:02:51.142Z,40.57
2018-02-03T09:03:51.119Z,40.66
2018-02-03T09:04:51.095Z,40.76
2018-02-03T09:05:51.072Z,40.57
2018-02-03T09:06:51.049Z,40.57
2018-02-03T09:07:51.026Z,40.57
2018-02-03T09:08:51.002Z,40.19
2018-02-03T09:09:50.979Z,40.57
2018-02-03T09:10:50.957Z,40.57
2018-02-03T09:11:50.933Z,40.47
2018-02-03T09:12:50.908Z,40.47
2018-02-03T09:13:50.887Z,40.37
2018-02-03T09:14:50.863Z,40.47
2018-02-03T09:15:50.841Z,40.37
2018-02-03T09:16:50.818Z,40.28
2018-02-03T09:17:50.796Z,40.47
2018-02-03T09:18:50.772Z,40.57
2018-02-03T09:19:50.749Z,40.57
2018-02-03T09:20:50.726Z,40.57
2018-02-03T09:21:50.702Z,39.99
2018-02-03T09:22:50.679Z,40.28
2018-02-03T09:23:50.657Z,40.28
2018-02-03T09:24:50.632Z,40.20
2018-02-03T09:25:50.611Z,40.11
2018-02-03T09:26:50.588Z,40.49
2018-02-03T09:27:50.564Z,40.30
2018-02-03T09:28:50.541Z,40.11
2018-02-03T09:29:50.519Z,39.91
2018-02-03T09:30:50.496Z,40.30
2018-02-03T09:31:50.488Z,40.37
2018-02-03T09:32:50.452Z,40.39
2018-02-03T09:33:50.426Z,40.30
2018-02-03T09:34:50.403Z,40.11
2018-02-03T09:35:50.381Z,40.30
2018-02-03T09:36:50.358Z,40.49
2018-02-03T09:37:50.335Z,41.27
2018-02-03T09:38:50.311Z,42.13
2018-02-03T09:39:50.289Z,41.84
2018-02-03T09:40:50.266Z,41.63
2018-02-03T09:41:50.242Z,41.65
2018-02-03T09:42:50.221Z,41.75
2018-02-03T09:43:50.200Z,41.72
2018-02-03T09:44:50.173Z,41.84
2018-02-03T09:45:50.150Z,42.11
2018-02-03T09:46:50.128Z,41.92
2018-02-03T09:47:50.106Z,41.92
2018-02-03T09:48:50.082Z,42.23
2018-02-03T09:49:50.059Z,41.92
2018-02-03T09:50:50.036Z,42.03
2018-02-03T09:51:50.014Z,42.02
2018-02-03T09:52:49.996Z,42.03
2018-02-03T09:53:49.967Z,41.94
2018-02-03T09:54:49.944Z,42.02
2018-02-03T09:55:49.922Z,42.11
2018-02-03T09:56:49.897Z,42.23
2018-02-03T09:57:49.874Z,42.02
2018-02-03T09:58:49.852Z,42.32
2018-02-03T09:59:49.830Z,42.32
2018-02-03T10:00:49.805Z,42.61
2018-02-03T10:01:49.782Z,42.40
2018-02-03T10:02:49.759Z,42.52
2018-02-03T10:03:49.736Z,42.40
2018-02-03T10:04:49.714Z,42.52
2018-02-03T10:05:49.693Z,42.30
2018-02-03T10:06:49.668Z,42.21
2018-02-03T10:07:49.645Z,42.52
2018-02-03T10:08:49.621Z,42.97
2018-02-03T10:09:49.598Z,43.10
2018-02-03T10:10:49.575Z,42.52
2018-02-03T10:11:49.553Z,42.59
2018-02-03T10:12:49.528Z,42.49
2018-02-03T10:13:49.505Z,42.80
2018-02-03T10:14:49.483Z,42.59
2018-02-03T10:15:49.459Z,42.71
2018-02-03T10:16:49.463Z,42.49
2018-02-03T10:17:49.412Z,42.59
2018-02-03T10:18:49.390Z,42.59
2018-02-03T10:19:49.368Z,42.32
2018-02-03T10:20:49.344Z,42.69
2018-02-03T10:21:49.321Z,42.59
2018-02-03T10:22:49.299Z,42.30
2018-02-03T10:23:49.275Z,42.42
2018-02-03T10:24:49.252Z,42.40
2018-02-03T10:25:49.228Z,42.49
2018-02-03T10:26:49.206Z,42.40
2018-02-03T10:27:49.184Z,42.30
2018-02-03T10:28:49.158Z,42.42
2018-02-03T10:29:49.138Z,42.42
2018-02-03T10:30:49.114Z,42.30
2018-02-03T10:31:49.092Z,42.40
2018-02-03T10:32:49.068Z,42.59
2018-02-03T10:33:49.044Z,42.40
2018-02-03T10:34:49.028Z,42.40
2018-02-03T10:35:48.999Z,42.49
2018-02-03T10:36:48.976Z,42.59
2018-02-03T10:37:48.952Z,42.30
2018-02-03T10:38:48.931Z,42.21
2018-02-03T10:39:48.907Z,42.49
2018-02-03T10:40:48.884Z,42.69
2018-02-03T10:41:48.861Z,42.40
2018-02-03T10:42:48.837Z,42.69
2018-02-03T10:43:48.814Z,42.59
2018-02-03T10:44:48.792Z,42.88
2018-02-03T10:45:48.767Z,42.79
2018-02-03T10:46:48.746Z,42.69
2018-02-03T10:47:48.723Z,42.88
2018-02-03T10:48:48.699Z,42.79
2018-02-03T10:49:48.675Z,42.59
2018-02-03T10:50:48.653Z,42.59
2018-02-03T10:51:48.630Z,42.69
2018-02-03T10:52:48.656Z,42.40
2018-02-03T10:53:48.584Z,42.59
2018-02-03T10:54:48.559Z,42.69
2018-02-03T10:55:48.537Z,42.79
2018-02-03T10:56:48.513Z,42.79
2018-02-03T10:57:48.490Z,42.97
2018-02-03T10:58:48.466Z,42.79
2018-02-03T10:59:48.442Z,42.88
2018-02-03T11:00:48.420Z,42.88
2018-02-03T11:01:48.397Z,42.79
2018-02-03T11:02:48.374Z,42.79
2018-02-03T11:03:48.351Z,42.69
2018-02-03T11:04:48.327Z,42.59
2018-02-03T11:05:48.304Z,42.97
2018-02-03T11:06:48.280Z,42.79
2018-02-03T11:07:48.258Z,42.79
2018-02-03T11:08:48.234Z,43.07
2018-02-03T11:09:48.210Z,42.88
2018-02-03T11:10:48.188Z,42.59
2018-02-03T11:11:48.163Z,42.59
2018-02-03T11:12:48.142Z,42.59
2018-02-03T11:13:48.117Z,42.49
2018-02-03T11:14:48.094Z,42.79
2018-02-03T11:15:48.071Z,42.49
2018-02-03T11:16:48.045Z,42.59
2018-02-03T11:17:48.024Z,42.59
2018-02-03T11:18:48.000Z,42.59
2018-02-03T11:19:47.976Z,42.59
2018-02-03T11:20:47.960Z,42.49
2018-02-03T11:21:47.932Z,42.49
2018-02-03T11:22:47.905Z,42.49
2018-02-03T11:23:47.884Z,42.40
2018-02-03T11:24:47.859Z,42.59
2018-02-03T11:25:47.838Z,42.49
2018-02-03T11:26:47.816Z,42.49
2018-02-03T11:27:47.789Z,42.59
2018-02-03T11:28:47.766Z,42.11
2018-02-03T11:29:47.743Z,41.82
2018-02-03T11:30:47.720Z,41.82
2018-02-03T11:31:47.698Z,41.53
2018-02-03T11:32:47.673Z,41.72
2018-02-03T11:33:47.650Z,41.53
2018-02-03T11:34:47.627Z,41.14
2018-02-03T11:35:47.604Z,41.14
2018-02-03T11:36:47.580Z,41.14
2018-02-03T11:37:47.557Z,41.34
2018-02-03T11:38:47.535Z,41.05
2018-02-03T11:39:47.512Z,41.05
2018-02-03T11:40:47.495Z,41.14
2018-02-03T11:41:47.464Z,41.14
2018-02-03T11:42:47.441Z,41.14
2018-02-03T11:43:47.418Z,41.05
2018-02-03T11:44:47.399Z,41.05
2018-02-03T11:45:47.371Z,40.86
2018-02-03T11:46:47.350Z,40.86
2018-02-03T11:47:47.330Z,40.76
2018-02-03T11:48:47.306Z,40.86
2018-02-03T11:49:47.278Z,40.57
2018-02-03T11:50:47.255Z,40.66
2018-02-03T11:51:47.232Z,40.76
2018-02-03T11:52:47.208Z,40.57
2018-02-03T11:53:47.184Z,40.86
2018-02-03T11:54:47.162Z,40.66
2018-02-03T11:55:47.140Z,40.19
2018-02-03T11:56:47.114Z,40.66
2018-02-03T11:57:47.096Z,40.66
2018-02-03T11:58:47.069Z,40.57
2018-02-03T11:59:47.046Z,40.37
2018-02-03T12:00:47.022Z,40.37
2018-02-03T12:01:46.998Z,40.57
2018-02-03T12:02:46.975Z,40.47
2018-02-03T12:03:46.953Z,40.19
2018-02-03T12:04:46.929Z,40.47
2018-02-03T12:05:46.906Z,40.57
2018-02-03T12:06:46.882Z,40.28
2018-02-03T12:07:46.860Z,40.47
2018-02-03T12:08:46.843Z,39.99
2018-02-03T12:09:46.812Z,40.47
2018-02-03T12:10:46.789Z,40.28
2018-02-03T12:11:46.768Z,40.19
2018-02-03T12:12:46.755Z,39.89
2018-02-03T12:13:46.720Z,39.89
2018-02-03T12:14:46.696Z,39.89
2018-02-03T12:15:46.673Z,40.28
2018-02-03T12:16:46.650Z,40.09
2018-02-03T12:17:46.627Z,40.47
2018-02-03T12:18:46.603Z,40.09
2018-02-03T12:19:46.581Z,40.19
2018-02-03T12:20:46.556Z,40.19
2018-02-03T12:21:46.534Z,40.37
2018-02-03T12:22:46.510Z,39.99
2018-02-03T12:23:46.486Z,40.28
2018-02-03T12:24:46.463Z,40.47
2018-02-03T12:25:46.442Z,40.19
2018-02-03T12:26:46.417Z,40.19
2018-02-03T12:27:46.393Z,40.47
2018-02-03T12:28:46.370Z,40.47
2018-02-03T12:29:46.345Z,40.47
2018-02-03T12:30:46.325Z,40.37
2018-02-03T12:31:46.301Z,40.47
2018-02-03T12:32:46.276Z,40.37
2018-02-03T12:33:46.252Z,40.37
2018-02-03T12:34:46.230Z,40.66
2018-02-03T12:35:46.207Z,40.47
2018-02-03T12:36:46.183Z,40.37
2018-02-03T12:37:46.160Z,40.37
2018-02-03T12:38:46.141Z,40.57
2018-02-03T12:39:46.113Z,40.37
2018-02-03T12:40:46.088Z,40.55
2018-02-03T12:41:46.073Z,40.47
2018-02-03T12:42:46.044Z,40.28
2018-02-03T12:43:46.020Z,40.66
2018-02-03T12:44:45.996Z,40.57
2018-02-03T12:45:45.972Z,40.28
2018-02-03T12:46:45.950Z,40.28
2018-02-03T12:47:45.926Z,40.47
2018-02-03T12:48:45.902Z,40.28
2018-02-03T12:49:45.879Z,40.37
2018-02-03T12:50:45.856Z,40.47
2018-02-03T12:51:45.833Z,40.28